sensor_id;sensor_type;location;lat;lon;timestamp;temperature;humidity
76857;DHT22;66179;44.686;37.628;2023-04-03T00:00:34;11.66;89.73
76857;DHT22;66179;44.686;37.628;2023-04-03T00:03:01;11.61;90.25
76857;DHT22;66179;44.686;37.628;2023-04-03T00:05:27;11.61;90.28
76857;DHT22;66179;44.686;37.628;2023-04-03T00:07:54;11.62;90.31
76857;DHT22;66179;44.686;37.628;2023-04-03T00:10:21;11.62;90.20
76857;DHT22;66179;44.686;37.628;2023-04-03T00:12:48;11.63;90.11
76857;DHT22;66179;44.686;37.628;2023-04-03T00:15:15;11.61;90.21
76857;DHT22;66179;44.686;37.628;2023-04-03T00:17:42;11.64;90.04
76857;DHT22;66179;44.686;37.628;2023-04-03T00:20:14;11.70;89.83
76857;DHT22;66179;44.686;37.628;2023-04-03T00:22:42;11.68;90.10
76857;DHT22;66179;44.686;37.628;2023-04-03T00:25:09;11.66;90.17
76857;DHT22;66179;44.686;37.628;2023-04-03T00:27:37;11.62;90.51
76857;DHT22;66179;44.686;37.628;2023-04-03T00:30:05;11.59;90.66
76857;DHT22;66179;44.686;37.628;2023-04-03T00:32:33;11.59;90.73
76857;DHT22;66179;44.686;37.628;2023-04-03T00:34:59;11.57;91.01
76857;DHT22;66179;44.686;37.628;2023-04-03T00:37:26;11.56;91.16
76857;DHT22;66179;44.686;37.628;2023-04-03T00:39:53;11.58;91.05
76857;DHT22;66179;44.686;37.628;2023-04-03T00:42:20;11.57;91.31
76857;DHT22;66179;44.686;37.628;2023-04-03T00:47:16;11.57;91.24
76857;DHT22;66179;44.686;37.628;2023-04-03T00:49:44;11.60;91.17
76857;DHT22;66179;44.686;37.628;2023-04-03T00:52:15;11.61;91.23
76857;DHT22;66179;44.686;37.628;2023-04-03T00:54:44;11.57;91.64
76857;DHT22;66179;44.686;37.628;2023-04-03T00:57:17;11.62;91.65
76857;DHT22;66179;44.686;37.628;2023-04-03T00:59:54;11.70;91.36
76857;DHT22;66179;44.686;37.628;2023-04-03T01:02:21;11.63;91.88
76857;DHT22;66179;44.686;37.628;2023-04-03T01:05:09;11.58;92.32
76857;DHT22;66179;44.686;37.628;2023-04-03T01:07:36;11.54;92.32
76857;DHT22;66179;44.686;37.628;2023-04-03T01:10:08;11.46;92.83
76857;DHT22;66179;44.686;37.628;2023-04-03T01:12:38;11.46;93.01
76857;DHT22;66179;44.686;37.628;2023-04-03T01:15:17;11.49;92.89
76857;DHT22;66179;44.686;37.628;2023-04-03T01:17:51;11.52;93.01
76857;DHT22;66179;44.686;37.628;2023-04-03T01:25:54;11.47;93.65
76857;DHT22;66179;44.686;37.628;2023-04-03T01:28:33;11.49;93.47
76857;DHT22;66179;44.686;37.628;2023-04-03T01:34:05;11.49;94.08
76857;DHT22;66179;44.686;37.628;2023-04-03T01:36:32;11.46;94.36
76857;DHT22;66179;44.686;37.628;2023-04-03T01:38:59;11.47;94.41
76857;DHT22;66179;44.686;37.628;2023-04-03T01:41:27;11.49;94.39
76857;DHT22;66179;44.686;37.628;2023-04-03T01:43:59;11.52;94.17
76857;DHT22;66179;44.686;37.628;2023-04-03T01:46:26;11.57;93.94
76857;DHT22;66179;44.686;37.628;2023-04-03T01:48:52;11.59;93.97
76857;DHT22;66179;44.686;37.628;2023-04-03T01:51:19;11.60;94.09
76857;DHT22;66179;44.686;37.628;2023-04-03T01:53:46;11.61;94.03
76857;DHT22;66179;44.686;37.628;2023-04-03T01:56:13;11.62;93.98
76857;DHT22;66179;44.686;37.628;2023-04-03T01:58:39;11.66;93.82
76857;DHT22;66179;44.686;37.628;2023-04-03T02:01:06;11.68;93.79
76857;DHT22;66179;44.686;37.628;2023-04-03T02:03:33;11.67;93.95
76857;DHT22;66179;44.686;37.628;2023-04-03T02:06:00;11.67;94.00
76857;DHT22;66179;44.686;37.628;2023-04-03T02:08:47;11.73;93.65
76857;DHT22;66179;44.686;37.628;2023-04-03T02:11:20;11.72;93.96
76857;DHT22;66179;44.686;37.628;2023-04-03T02:13:46;11.73;93.99
76857;DHT22;66179;44.686;37.628;2023-04-03T02:16:13;11.78;93.81
76857;DHT22;66179;44.686;37.628;2023-04-03T02:18:39;11.84;93.64
76857;DHT22;66179;44.686;37.628;2023-04-03T02:21:06;11.85;93.71
76857;DHT22;66179;44.686;37.628;2023-04-03T02:23:53;11.88;93.63
76857;DHT22;66179;44.686;37.628;2023-04-03T02:26:19;11.89;93.51
76857;DHT22;66179;44.686;37.628;2023-04-03T02:29:07;11.91;93.39
76857;DHT22;66179;44.686;37.628;2023-04-03T02:31:35;11.93;93.43
76857;DHT22;66179;44.686;37.628;2023-04-03T02:34:02;11.94;93.42
76857;DHT22;66179;44.686;37.628;2023-04-03T02:36:34;11.93;93.53
76857;DHT22;66179;44.686;37.628;2023-04-03T02:39:04;11.90;93.77
76857;DHT22;66179;44.686;37.628;2023-04-03T02:41:36;11.88;94.17
76857;DHT22;66179;44.686;37.628;2023-04-03T02:44:13;11.77;95.26
76857;DHT22;66179;44.686;37.628;2023-04-03T02:46:40;11.81;95.30
76857;DHT22;66179;44.686;37.628;2023-04-03T02:49:07;11.83;95.21
76857;DHT22;66179;44.686;37.628;2023-04-03T02:51:34;11.82;95.01
76857;DHT22;66179;44.686;37.628;2023-04-03T02:54:00;11.76;95.49
76857;DHT22;66179;44.686;37.628;2023-04-03T02:56:31;11.78;95.55
76857;DHT22;66179;44.686;37.628;2023-04-03T02:58:57;11.76;95.73
76857;DHT22;66179;44.686;37.628;2023-04-03T03:01:30;11.74;95.52
76857;DHT22;66179;44.686;37.628;2023-04-03T03:03:59;11.75;95.97
76857;DHT22;66179;44.686;37.628;2023-04-03T03:06:27;11.75;95.71
76857;DHT22;66179;44.686;37.628;2023-04-03T03:08:54;11.74;95.68
76857;DHT22;66179;44.686;37.628;2023-04-03T03:11:21;11.73;95.87
76857;DHT22;66179;44.686;37.628;2023-04-03T03:13:47;11.73;95.89
76857;DHT22;66179;44.686;37.628;2023-04-03T03:16:19;11.69;96.22
76857;DHT22;66179;44.686;37.628;2023-04-03T03:18:46;11.67;96.38
76857;DHT22;66179;44.686;37.628;2023-04-03T03:21:13;11.59;97.10
76857;DHT22;66179;44.686;37.628;2023-04-03T03:23:40;11.59;97.09
76857;DHT22;66179;44.686;37.628;2023-04-03T03:26:09;11.61;97.09
76857;DHT22;66179;44.686;37.628;2023-04-03T03:28:37;11.63;96.89
76857;DHT22;66179;44.686;37.628;2023-04-03T03:31:06;11.64;96.80
76857;DHT22;66179;44.686;37.628;2023-04-03T03:33:34;11.61;97.32
76857;DHT22;66179;44.686;37.628;2023-04-03T03:36:01;11.55;97.68
76857;DHT22;66179;44.686;37.628;2023-04-03T03:38:27;11.60;97.16
76857;DHT22;66179;44.686;37.628;2023-04-03T03:40:54;11.59;97.25
76857;DHT22;66179;44.686;37.628;2023-04-03T03:43:22;11.57;97.37
76857;DHT22;66179;44.686;37.628;2023-04-03T03:45:52;11.62;97.16
76857;DHT22;66179;44.686;37.628;2023-04-03T03:48:23;11.62;97.26
76857;DHT22;66179;44.686;37.628;2023-04-03T03:50:50;11.63;96.97
76857;DHT22;66179;44.686;37.628;2023-04-03T03:53:22;11.64;97.00
76857;DHT22;66179;44.686;37.628;2023-04-03T03:55:52;11.63;96.82
76857;DHT22;66179;44.686;37.628;2023-04-03T03:58:42;11.63;96.90
76857;DHT22;66179;44.686;37.628;2023-04-03T04:01:09;11.63;96.83
76857;DHT22;66179;44.686;37.628;2023-04-03T04:03:42;11.62;96.97
76857;DHT22;66179;44.686;37.628;2023-04-03T04:06:11;11.67;96.84
76857;DHT22;66179;44.686;37.628;2023-04-03T04:08:58;11.67;96.44
76857;DHT22;66179;44.686;37.628;2023-04-03T04:11:24;11.71;96.23
76857;DHT22;66179;44.686;37.628;2023-04-03T04:13:58;11.72;96.02
76857;DHT22;66179;44.686;37.628;2023-04-03T04:16:28;11.64;96.39
76857;DHT22;66179;44.686;37.628;2023-04-03T04:18:57;11.63;96.35
76857;DHT22;66179;44.686;37.628;2023-04-03T04:21:24;11.48;97.20
76857;DHT22;66179;44.686;37.628;2023-04-03T04:23:53;11.47;97.56
76857;DHT22;66179;44.686;37.628;2023-04-03T04:26:26;11.47;97.34
76857;DHT22;66179;44.686;37.628;2023-04-03T04:28:52;11.53;96.87
76857;DHT22;66179;44.686;37.628;2023-04-03T04:31:20;11.47;97.12
76857;DHT22;66179;44.686;37.628;2023-04-03T04:33:48;11.55;96.52
76857;DHT22;66179;44.686;37.628;2023-04-03T04:36:15;11.60;96.20
76857;DHT22;66179;44.686;37.628;2023-04-03T04:38:44;11.66;96.14
76857;DHT22;66179;44.686;37.628;2023-04-03T04:41:31;11.59;96.79
76857;DHT22;66179;44.686;37.628;2023-04-03T04:43:58;11.54;97.11
76857;DHT22;66179;44.686;37.628;2023-04-03T04:46:26;11.55;96.57
76857;DHT22;66179;44.686;37.628;2023-04-03T04:48:56;11.57;95.68
76857;DHT22;66179;44.686;37.628;2023-04-03T04:51:25;11.59;96.28
76857;DHT22;66179;44.686;37.628;2023-04-03T04:53:52;11.56;96.56
76857;DHT22;66179;44.686;37.628;2023-04-03T04:56:19;11.51;96.75
76857;DHT22;66179;44.686;37.628;2023-04-03T04:59:05;11.56;96.69
76857;DHT22;66179;44.686;37.628;2023-04-03T05:01:31;11.59;95.88
76857;DHT22;66179;44.686;37.628;2023-04-03T05:04:04;11.64;95.55
76857;DHT22;66179;44.686;37.628;2023-04-03T05:06:31;11.69;94.97
76857;DHT22;66179;44.686;37.628;2023-04-03T05:09:07;11.69;94.88
76857;DHT22;66179;44.686;37.628;2023-04-03T05:11:55;11.54;94.49
76857;DHT22;66179;44.686;37.628;2023-04-03T05:14:26;11.42;94.87
76857;DHT22;66179;44.686;37.628;2023-04-03T05:16:53;11.40;95.56
76857;DHT22;66179;44.686;37.628;2023-04-03T05:19:23;11.42;95.49
76857;DHT22;66179;44.686;37.628;2023-04-03T05:21:50;11.40;95.23
76857;DHT22;66179;44.686;37.628;2023-04-03T05:24:18;11.37;95.00
76857;DHT22;66179;44.686;37.628;2023-04-03T05:26:44;11.44;95.13
76857;DHT22;66179;44.686;37.628;2023-04-03T05:29:32;11.48;94.61
76857;DHT22;66179;44.686;37.628;2023-04-03T05:32:00;11.53;94.53
76857;DHT22;66179;44.686;37.628;2023-04-03T05:34:27;11.56;94.72
76857;DHT22;66179;44.686;37.628;2023-04-03T05:36:56;11.67;94.23
76857;DHT22;66179;44.686;37.628;2023-04-03T05:39:23;11.78;93.75
76857;DHT22;66179;44.686;37.628;2023-04-03T05:41:51;11.90;93.03
76857;DHT22;66179;44.686;37.628;2023-04-03T05:44:17;12.04;92.92
76857;DHT22;66179;44.686;37.628;2023-04-03T05:46:46;12.11;92.72
76857;DHT22;66179;44.686;37.628;2023-04-03T05:49:13;12.22;92.34
76857;DHT22;66179;44.686;37.628;2023-04-03T05:51:40;12.35;91.97
76857;DHT22;66179;44.686;37.628;2023-04-03T05:54:29;12.46;90.84
76857;DHT22;66179;44.686;37.628;2023-04-03T05:57:09;12.61;90.50
76857;DHT22;66179;44.686;37.628;2023-04-03T05:59:45;12.77;90.28
76857;DHT22;66179;44.686;37.628;2023-04-03T06:02:16;12.87;89.53
76857;DHT22;66179;44.686;37.628;2023-04-03T06:04:44;12.81;89.78
76857;DHT22;66179;44.686;37.628;2023-04-03T06:07:16;12.88;88.90
76857;DHT22;66179;44.686;37.628;2023-04-03T06:09:44;12.93;87.83
76857;DHT22;66179;44.686;37.628;2023-04-03T06:12:15;12.94;88.35
76857;DHT22;66179;44.686;37.628;2023-04-03T06:14:42;13.06;87.78
76857;DHT22;66179;44.686;37.628;2023-04-03T06:17:09;13.15;86.46
76857;DHT22;66179;44.686;37.628;2023-04-03T06:19:36;13.08;87.99
76857;DHT22;66179;44.686;37.628;2023-04-03T06:22:03;13.07;86.94
76857;DHT22;66179;44.686;37.628;2023-04-03T06:24:30;13.06;85.29
76857;DHT22;66179;44.686;37.628;2023-04-03T06:26:57;12.99;85.97
76857;DHT22;66179;44.686;37.628;2023-04-03T06:29:29;13.02;84.96
76857;DHT22;66179;44.686;37.628;2023-04-03T06:31:56;13.23;86.89
76857;DHT22;66179;44.686;37.628;2023-04-03T06:34:22;13.27;84.77
76857;DHT22;66179;44.686;37.628;2023-04-03T06:36:49;13.43;84.52
76857;DHT22;66179;44.686;37.628;2023-04-03T06:39:19;13.37;85.47
76857;DHT22;66179;44.686;37.628;2023-04-03T06:41:47;13.19;85.03
76857;DHT22;66179;44.686;37.628;2023-04-03T06:44:15;13.30;85.74
76857;DHT22;66179;44.686;37.628;2023-04-03T06:46:43;13.53;84.17
76857;DHT22;66179;44.686;37.628;2023-04-03T06:49:10;13.77;84.29
76857;DHT22;66179;44.686;37.628;2023-04-03T06:51:37;14.06;84.55
76857;DHT22;66179;44.686;37.628;2023-04-03T06:54:04;14.04;82.49
76857;DHT22;66179;44.686;37.628;2023-04-03T06:56:32;14.12;83.61
76857;DHT22;66179;44.686;37.628;2023-04-03T06:58:58;14.14;82.91
76857;DHT22;66179;44.686;37.628;2023-04-03T07:01:27;14.25;84.02
76857;DHT22;66179;44.686;37.628;2023-04-03T07:03:55;14.38;82.85
76857;DHT22;66179;44.686;37.628;2023-04-03T07:06:22;14.37;81.23
76857;DHT22;66179;44.686;37.628;2023-04-03T07:08:48;14.45;81.26
76857;DHT22;66179;44.686;37.628;2023-04-03T07:11:15;14.23;81.64
76857;DHT22;66179;44.686;37.628;2023-04-03T07:13:42;14.28;83.49
76857;DHT22;66179;44.686;37.628;2023-04-03T07:16:09;14.32;82.37
76857;DHT22;66179;44.686;37.628;2023-04-03T07:18:36;14.44;81.33
76857;DHT22;66179;44.686;37.628;2023-04-03T07:21:03;14.56;82.60
76857;DHT22;66179;44.686;37.628;2023-04-03T07:23:30;14.50;81.23
76857;DHT22;66179;44.686;37.628;2023-04-03T07:25:57;14.42;81.48
76857;DHT22;66179;44.686;37.628;2023-04-03T07:28:23;14.44;83.52
76857;DHT22;66179;44.686;37.628;2023-04-03T07:30:52;14.32;83.58
76857;DHT22;66179;44.686;37.628;2023-04-03T07:33:21;14.41;83.15
76857;DHT22;66179;44.686;37.628;2023-04-03T07:35:48;14.32;82.82
76857;DHT22;66179;44.686;37.628;2023-04-03T07:38:15;14.34;82.08
76857;DHT22;66179;44.686;37.628;2023-04-03T07:40:48;14.28;82.26
76857;DHT22;66179;44.686;37.628;2023-04-03T07:43:17;14.14;82.91
76857;DHT22;66179;44.686;37.628;2023-04-03T07:45:44;13.97;82.75
76857;DHT22;66179;44.686;37.628;2023-04-03T07:48:11;13.82;84.03
76857;DHT22;66179;44.686;37.628;2023-04-03T07:50:42;13.80;84.11
76857;DHT22;66179;44.686;37.628;2023-04-03T07:53:09;13.92;84.55
76857;DHT22;66179;44.686;37.628;2023-04-03T07:55:37;13.86;84.90
76857;DHT22;66179;44.686;37.628;2023-04-03T07:58:10;13.94;84.02
76857;DHT22;66179;44.686;37.628;2023-04-03T08:00:37;14.08;83.13
76857;DHT22;66179;44.686;37.628;2023-04-03T08:03:06;14.18;83.83
76857;DHT22;66179;44.686;37.628;2023-04-03T08:05:40;14.29;83.27
76857;DHT22;66179;44.686;37.628;2023-04-03T08:08:08;14.35;82.17
76857;DHT22;66179;44.686;37.628;2023-04-03T08:10:36;14.54;81.57
76857;DHT22;66179;44.686;37.628;2023-04-03T08:13:04;14.51;82.28
76857;DHT22;66179;44.686;37.628;2023-04-03T08:15:31;14.20;83.49
76857;DHT22;66179;44.686;37.628;2023-04-03T08:17:59;14.32;83.32
76857;DHT22;66179;44.686;37.628;2023-04-03T08:20:27;14.33;83.13
76857;DHT22;66179;44.686;37.628;2023-04-03T08:22:54;14.20;83.66
76857;DHT22;66179;44.686;37.628;2023-04-03T08:25:21;14.13;84.58
76857;DHT22;66179;44.686;37.628;2023-04-03T08:27:48;14.10;85.08
76857;DHT22;66179;44.686;37.628;2023-04-03T08:30:14;14.28;82.95
76857;DHT22;66179;44.686;37.628;2023-04-03T08:32:41;14.44;81.39
76857;DHT22;66179;44.686;37.628;2023-04-03T08:35:10;14.49;82.80
76857;DHT22;66179;44.686;37.628;2023-04-03T08:37:38;14.55;82.18
76857;DHT22;66179;44.686;37.628;2023-04-03T08:40:06;14.55;82.40
76857;DHT22;66179;44.686;37.628;2023-04-03T08:48:05;14.33;83.06
76857;DHT22;66179;44.686;37.628;2023-04-03T08:50:40;14.20;83.49
76857;DHT22;66179;44.686;37.628;2023-04-03T08:53:24;14.00;84.35
76857;DHT22;66179;44.686;37.628;2023-04-03T08:55:53;13.81;84.34
76857;DHT22;66179;44.686;37.628;2023-04-03T08:58:23;13.64;84.71
76857;DHT22;66179;44.686;37.628;2023-04-03T09:00:55;13.48;86.73
76857;DHT22;66179;44.686;37.628;2023-04-03T09:03:23;13.53;86.99
76857;DHT22;66179;44.686;37.628;2023-04-03T09:05:57;13.52;86.83
76857;DHT22;66179;44.686;37.628;2023-04-03T09:11:27;13.58;85.71
76857;DHT22;66179;44.686;37.628;2023-04-03T09:14:04;13.59;85.55
76857;DHT22;66179;44.686;37.628;2023-04-03T09:16:44;13.25;86.44
76857;DHT22;66179;44.686;37.628;2023-04-03T09:22:23;13.00;88.02
76857;DHT22;66179;44.686;37.628;2023-04-03T09:25:07;12.95;88.83
76857;DHT22;66179;44.686;37.628;2023-04-03T09:27:36;12.89;89.05
76857;DHT22;66179;44.686;37.628;2023-04-03T09:30:19;12.75;89.83
76857;DHT22;66179;44.686;37.628;2023-04-03T09:32:50;12.84;89.36
76857;DHT22;66179;44.686;37.628;2023-04-03T09:35:32;12.82;89.54
76857;DHT22;66179;44.686;37.628;2023-04-03T09:40:42;12.89;89.50
76857;DHT22;66179;44.686;37.628;2023-04-03T09:45:44;13.04;88.96
76857;DHT22;66179;44.686;37.628;2023-04-03T09:48:16;13.05;88.80
76857;DHT22;66179;44.686;37.628;2023-04-03T09:53:42;13.02;87.88
76857;DHT22;66179;44.686;37.628;2023-04-03T09:58:44;13.19;88.70
76857;DHT22;66179;44.686;37.628;2023-04-03T10:06:43;13.24;88.44
76857;DHT22;66179;44.686;37.628;2023-04-03T10:09:21;13.20;87.60
76857;DHT22;66179;44.686;37.628;2023-04-03T10:12:05;13.24;87.55
76857;DHT22;66179;44.686;37.628;2023-04-03T10:14:39;13.26;87.90
76857;DHT22;66179;44.686;37.628;2023-04-03T10:28:48;13.36;88.57
76857;DHT22;66179;44.686;37.628;2023-04-03T10:34:36;13.44;86.36
76857;DHT22;66179;44.686;37.628;2023-04-03T10:47:39;13.15;87.81
76857;DHT22;66179;44.686;37.628;2023-04-03T10:52:47;13.21;87.07
76857;DHT22;66179;44.686;37.628;2023-04-03T10:55:38;13.22;86.96
76857;DHT22;66179;44.686;37.628;2023-04-03T10:58:06;13.17;87.22
76857;DHT22;66179;44.686;37.628;2023-04-03T11:00:42;13.04;88.12
76857;DHT22;66179;44.686;37.628;2023-04-03T11:05:53;12.93;89.21
76857;DHT22;66179;44.686;37.628;2023-04-03T11:08:35;12.96;89.00
76857;DHT22;66179;44.686;37.628;2023-04-03T11:11:11;13.08;88.06
76857;DHT22;66179;44.686;37.628;2023-04-03T11:14:03;13.20;87.48
76857;DHT22;66179;44.686;37.628;2023-04-03T11:16:37;13.20;87.19
76857;DHT22;66179;44.686;37.628;2023-04-03T11:22:29;13.27;87.36
76857;DHT22;66179;44.686;37.628;2023-04-03T11:28:09;13.15;87.64
76857;DHT22;66179;44.686;37.628;2023-04-03T11:31:01;12.97;88.41
76857;DHT22;66179;44.686;37.628;2023-04-03T11:34:05;12.94;88.38
76857;DHT22;66179;44.686;37.628;2023-04-03T11:36:44;12.89;88.27
76857;DHT22;66179;44.686;37.628;2023-04-03T11:39:29;12.94;87.99
76857;DHT22;66179;44.686;37.628;2023-04-03T11:42:14;13.11;87.89
76857;DHT22;66179;44.686;37.628;2023-04-03T11:44:42;13.15;87.03
76857;DHT22;66179;44.686;37.628;2023-04-03T11:47:10;13.11;87.51
76857;DHT22;66179;44.686;37.628;2023-04-03T12:01:06;13.19;86.91
76857;DHT22;66179;44.686;37.628;2023-04-03T12:03:56;13.11;88.25
76857;DHT22;66179;44.686;37.628;2023-04-03T12:08:54;13.29;86.50
76857;DHT22;66179;44.686;37.628;2023-04-03T12:11:32;13.32;87.80
76857;DHT22;66179;44.686;37.628;2023-04-03T12:19:34;13.40;86.27
76857;DHT22;66179;44.686;37.628;2023-04-03T12:22:22;13.47;86.38
76857;DHT22;66179;44.686;37.628;2023-04-03T12:24:51;13.54;86.65
76857;DHT22;66179;44.686;37.628;2023-04-03T12:27:27;13.61;85.27
76857;DHT22;66179;44.686;37.628;2023-04-03T12:32:51;13.61;85.11
76857;DHT22;66179;44.686;37.628;2023-04-03T12:36:33;13.30;86.35
76857;DHT22;66179;44.686;37.628;2023-04-03T12:44:56;13.24;87.29
76857;DHT22;66179;44.686;37.628;2023-04-03T12:49:54;13.26;87.26
76857;DHT22;66179;44.686;37.628;2023-04-03T12:55:14;12.96;88.86
76857;DHT22;66179;44.686;37.628;2023-04-03T12:57:41;12.91;88.71
76857;DHT22;66179;44.686;37.628;2023-04-03T13:00:31;12.94;88.66
76857;DHT22;66179;44.686;37.628;2023-04-03T13:03:01;12.91;88.83
76857;DHT22;66179;44.686;37.628;2023-04-03T13:05:34;12.92;89.41
76857;DHT22;66179;44.686;37.628;2023-04-03T13:08:21;12.78;89.59
76857;DHT22;66179;44.686;37.628;2023-04-03T13:11:11;12.77;90.04
76857;DHT22;66179;44.686;37.628;2023-04-03T13:13:38;12.70;90.48
76857;DHT22;66179;44.686;37.628;2023-04-03T13:16:26;12.75;90.71
76857;DHT22;66179;44.686;37.628;2023-04-03T13:18:53;12.86;89.73
76857;DHT22;66179;44.686;37.628;2023-04-03T13:21:28;12.89;89.92
76857;DHT22;66179;44.686;37.628;2023-04-03T13:24:00;12.89;89.51
76857;DHT22;66179;44.686;37.628;2023-04-03T13:26:31;12.87;90.19
76857;DHT22;66179;44.686;37.628;2023-04-03T13:29:07;12.88;89.95
76857;DHT22;66179;44.686;37.628;2023-04-03T13:31:38;12.82;89.85
76857;DHT22;66179;44.686;37.628;2023-04-03T13:37:00;12.79;90.85
76857;DHT22;66179;44.686;37.628;2023-04-03T13:39:30;12.70;90.86
76857;DHT22;66179;44.686;37.628;2023-04-03T13:42:00;12.67;91.00
76857;DHT22;66179;44.686;37.628;2023-04-03T13:44:33;12.65;90.96
76857;DHT22;66179;44.686;37.628;2023-04-03T13:47:16;12.60;90.79
76857;DHT22;66179;44.686;37.628;2023-04-03T13:50:03;12.57;91.36
76857;DHT22;66179;44.686;37.628;2023-04-03T13:52:41;12.53;91.52
76857;DHT22;66179;44.686;37.628;2023-04-03T13:55:27;12.51;92.12
76857;DHT22;66179;44.686;37.628;2023-04-03T13:57:59;12.50;92.15
76857;DHT22;66179;44.686;37.628;2023-04-03T14:00:46;12.49;92.01
76857;DHT22;66179;44.686;37.628;2023-04-03T14:03:25;12.45;92.16
76857;DHT22;66179;44.686;37.628;2023-04-03T14:05:53;12.45;92.17
76857;DHT22;66179;44.686;37.628;2023-04-03T14:08:20;12.41;92.14
76857;DHT22;66179;44.686;37.628;2023-04-03T14:10:47;12.36;92.41
76857;DHT22;66179;44.686;37.628;2023-04-03T14:13:21;12.32;92.77
76857;DHT22;66179;44.686;37.628;2023-04-03T14:15:48;12.36;92.63
76857;DHT22;66179;44.686;37.628;2023-04-03T14:18:19;12.41;91.47
76857;DHT22;66179;44.686;37.628;2023-04-03T14:20:47;12.43;91.01
76857;DHT22;66179;44.686;37.628;2023-04-03T14:23:14;12.42;90.50
76857;DHT22;66179;44.686;37.628;2023-04-03T14:25:41;12.33;90.60
76857;DHT22;66179;44.686;37.628;2023-04-03T14:28:21;12.27;90.89
76857;DHT22;66179;44.686;37.628;2023-04-03T14:30:49;12.26;91.31
76857;DHT22;66179;44.686;37.628;2023-04-03T14:33:20;12.26;91.36
76857;DHT22;66179;44.686;37.628;2023-04-03T14:35:48;12.26;91.90
76857;DHT22;66179;44.686;37.628;2023-04-03T14:38:29;12.30;91.89
76857;DHT22;66179;44.686;37.628;2023-04-03T14:40:56;12.33;92.03
76857;DHT22;66179;44.686;37.628;2023-04-03T14:43:30;12.31;92.16
76857;DHT22;66179;44.686;37.628;2023-04-03T14:45:56;12.30;92.30
76857;DHT22;66179;44.686;37.628;2023-04-03T14:48:26;12.30;92.43
76857;DHT22;66179;44.686;37.628;2023-04-03T14:50:53;12.32;92.36
76857;DHT22;66179;44.686;37.628;2023-04-03T14:53:20;12.32;92.65
76857;DHT22;66179;44.686;37.628;2023-04-03T14:55:52;12.27;92.59
76857;DHT22;66179;44.686;37.628;2023-04-03T14:58:20;12.29;92.53
76857;DHT22;66179;44.686;37.628;2023-04-03T15:00:47;12.27;92.42
76857;DHT22;66179;44.686;37.628;2023-04-03T15:03:19;12.21;92.67
76857;DHT22;66179;44.686;37.628;2023-04-03T15:05:48;12.17;93.35
76857;DHT22;66179;44.686;37.628;2023-04-03T15:08:23;12.17;93.26
76857;DHT22;66179;44.686;37.628;2023-04-03T15:10:51;12.20;93.06
76857;DHT22;66179;44.686;37.628;2023-04-03T15:13:23;12.21;92.88
76857;DHT22;66179;44.686;37.628;2023-04-03T15:15:50;12.15;93.40
76857;DHT22;66179;44.686;37.628;2023-04-03T15:18:22;12.21;93.09
76857;DHT22;66179;44.686;37.628;2023-04-03T15:20:50;12.11;93.78
76857;DHT22;66179;44.686;37.628;2023-04-03T15:23:17;12.10;93.75
76857;DHT22;66179;44.686;37.628;2023-04-03T15:25:48;12.14;93.18
76857;DHT22;66179;44.686;37.628;2023-04-03T15:28:40;12.12;93.78
76857;DHT22;66179;44.686;37.628;2023-04-03T15:31:07;12.12;93.57
76857;DHT22;66179;44.686;37.628;2023-04-03T15:33:34;12.14;93.47
76857;DHT22;66179;44.686;37.628;2023-04-03T15:36:02;12.13;93.80
76857;DHT22;66179;44.686;37.628;2023-04-03T15:38:29;12.19;93.78
76857;DHT22;66179;44.686;37.628;2023-04-03T15:40:56;12.23;93.00
76857;DHT22;66179;44.686;37.628;2023-04-03T15:43:23;12.27;93.13
76857;DHT22;66179;44.686;37.628;2023-04-03T15:45:50;12.28;93.04
76857;DHT22;66179;44.686;37.628;2023-04-03T15:48:22;12.25;93.38
76857;DHT22;66179;44.686;37.628;2023-04-03T15:50:49;12.28;93.14
76857;DHT22;66179;44.686;37.628;2023-04-03T15:53:16;12.28;93.14
76857;DHT22;66179;44.686;37.628;2023-04-03T15:55:50;12.31;93.73
76857;DHT22;66179;44.686;37.628;2023-04-03T15:58:16;12.31;93.07
76857;DHT22;66179;44.686;37.628;2023-04-03T16:00:43;12.26;93.28
76857;DHT22;66179;44.686;37.628;2023-04-03T16:03:20;12.22;93.33
76857;DHT22;66179;44.686;37.628;2023-04-03T16:05:48;12.21;93.51
76857;DHT22;66179;44.686;37.628;2023-04-03T16:08:16;12.27;93.18
76857;DHT22;66179;44.686;37.628;2023-04-03T16:10:44;12.27;92.98
76857;DHT22;66179;44.686;37.628;2023-04-03T16:13:13;12.28;93.10
76857;DHT22;66179;44.686;37.628;2023-04-03T16:15:40;12.32;92.94
76857;DHT22;66179;44.686;37.628;2023-04-03T16:18:08;12.34;92.98
76857;DHT22;66179;44.686;37.628;2023-04-03T16:20:36;12.35;93.16
76857;DHT22;66179;44.686;37.628;2023-04-03T16:23:03;12.40;92.42
76857;DHT22;66179;44.686;37.628;2023-04-03T16:25:30;12.42;92.25
76857;DHT22;66179;44.686;37.628;2023-04-03T16:27:57;12.49;92.00
76857;DHT22;66179;44.686;37.628;2023-04-03T16:30:24;12.50;92.11
76857;DHT22;66179;44.686;37.628;2023-04-03T16:32:51;12.51;91.89
76857;DHT22;66179;44.686;37.628;2023-04-03T16:35:17;12.52;92.02
76857;DHT22;66179;44.686;37.628;2023-04-03T16:37:44;12.56;91.80
76857;DHT22;66179;44.686;37.628;2023-04-03T16:40:11;12.53;91.98
76857;DHT22;66179;44.686;37.628;2023-04-03T16:42:38;12.61;91.62
76857;DHT22;66179;44.686;37.628;2023-04-03T16:45:06;12.61;91.43
76857;DHT22;66179;44.686;37.628;2023-04-03T16:47:33;12.63;91.51
76857;DHT22;66179;44.686;37.628;2023-04-03T16:50:00;12.63;91.31
76857;DHT22;66179;44.686;37.628;2023-04-03T16:52:27;12.62;91.32
76857;DHT22;66179;44.686;37.628;2023-04-03T16:54:54;12.58;91.53
76857;DHT22;66179;44.686;37.628;2023-04-03T16:57:22;12.57;91.65
76857;DHT22;66179;44.686;37.628;2023-04-03T16:59:51;12.56;91.80
76857;DHT22;66179;44.686;37.628;2023-04-03T17:02:19;12.52;91.82
76857;DHT22;66179;44.686;37.628;2023-04-03T17:04:46;12.57;92.71
76857;DHT22;66179;44.686;37.628;2023-04-03T17:07:12;12.56;92.14
76857;DHT22;66179;44.686;37.628;2023-04-03T17:09:39;12.55;92.01
76857;DHT22;66179;44.686;37.628;2023-04-03T17:12:06;12.53;91.95
76857;DHT22;66179;44.686;37.628;2023-04-03T17:14:32;12.55;92.08
76857;DHT22;66179;44.686;37.628;2023-04-03T17:16:59;12.56;91.95
76857;DHT22;66179;44.686;37.628;2023-04-03T17:19:25;12.59;91.76
76857;DHT22;66179;44.686;37.628;2023-04-03T17:21:53;12.57;92.01
76857;DHT22;66179;44.686;37.628;2023-04-03T17:24:21;12.60;91.78
76857;DHT22;66179;44.686;37.628;2023-04-03T17:26:47;12.64;91.58
76857;DHT22;66179;44.686;37.628;2023-04-03T17:29:14;12.62;91.62